sensor_id;sensor_type;location;lat;lon;timestamp;P1;durP1;ratioP1;P2;durP2;ratioP2
41532;SDS011;27262;-35.248;149.138;2023-03-15T00:01:50;0.50;;;0.40;;
41532;SDS011;27262;-35.248;149.138;2023-03-15T00:04:22;0.60;;;0.60;;
41532;SDS011;27262;-35.248;149.138;2023-03-15T00:06:54;0.50;;;0.50;;
41532;SDS011;27262;-35.248;149.138;2023-03-15T00:09:24;0.52;;;0.47;;
41532;SDS011;27262;-35.248;149.138;2023-03-15T00:11:55;0.40;;;0.40;;
41532;SDS011;27262;-35.248;149.138;2023-03-15T00:14:25;0.60;;;0.50;;
41532;SDS011;27262;-35.248;149.138;2023-03-15T00:16:55;0.70;;;0.70;;
41532;SDS011;27262;-35.248;149.138;2023-03-15T00:19:25;0.40;;;0.40;;
41532;SDS011;27262;-35.248;149.138;2023-03-15T00:21:56;0.50;;;0.40;;
41532;SDS011;27262;-35.248;149.138;2023-03-15T00:24:26;0.47;;;0.47;;
41532;SDS011;27262;-35.248;149.138;2023-03-15T00:26:56;0.40;;;0.40;;
41532;SDS011;27262;-35.248;149.138;2023-03-15T00:29:27;0.63;;;0.50;;
41532;SDS011;27262;-35.248;149.138;2023-03-15T00:31:57;0.40;;;0.40;;
41532;SDS011;27262;-35.248;149.138;2023-03-15T00:34:27;1.27;;;0.60;;
41532;SDS011;27262;-35.248;149.138;2023-03-15T00:37:01;0.63;;;0.57;;
41532;SDS011;27262;-35.248;149.138;2023-03-15T00:39:31;0.47;;;0.47;;
41532;SDS011;27262;-35.248;149.138;2023-03-15T00:42:23;0.40;;;0.40;;
41532;SDS011;27262;-35.248;149.138;2023-03-15T00:44:55;0.68;;;0.50;;
41532;SDS011;27262;-35.248;149.138;2023-03-15T00:47:25;0.50;;;0.50;;
41532;SDS011;27262;-35.248;149.138;2023-03-15T00:49:55;0.77;;;0.60;;
41532;SDS011;27262;-35.248;149.138;2023-03-15T00:52:25;0.65;;;0.57;;
41532;SDS011;27262;-35.248;149.138;2023-03-15T00:54:56;0.60;;;0.60;;
41532;SDS011;27262;-35.248;149.138;2023-03-15T00:57:26;0.63;;;0.63;;
41532;SDS011;27262;-35.248;149.138;2023-03-15T00:59:56;0.50;;;0.50;;
41532;SDS011;27262;-35.248;149.138;2023-03-15T01:02:27;0.55;;;0.50;;
41532;SDS011;27262;-35.248;149.138;2023-03-15T01:04:57;0.47;;;0.47;;
41532;SDS011;27262;-35.248;149.138;2023-03-15T01:07:27;0.50;;;0.50;;
41532;SDS011;27262;-35.248;149.138;2023-03-15T01:10:01;0.50;;;0.50;;
41532;SDS011;27262;-35.248;149.138;2023-03-15T01:12:33;0.40;;;0.40;;
41532;SDS011;27262;-35.248;149.138;2023-03-15T01:15:04;0.50;;;0.50;;
41532;SDS011;27262;-35.248;149.138;2023-03-15T01:17:36;0.50;;;0.50;;
41532;SDS011;27262;-35.248;149.138;2023-03-15T01:20:06;0.98;;;0.50;;
41532;SDS011;27262;-35.248;149.138;2023-03-15T01:22:38;0.40;;;0.40;;
41532;SDS011;27262;-35.248;149.138;2023-03-15T01:25:08;0.65;;;0.65;;
41532;SDS011;27262;-35.248;149.138;2023-03-15T01:27:39;0.40;;;0.40;;
41532;SDS011;27262;-35.248;149.138;2023-03-15T01:30:09;0.50;;;0.50;;
41532;SDS011;27262;-35.248;149.138;2023-03-15T01:32:39;1.10;;;0.60;;
41532;SDS011;27262;-35.248;149.138;2023-03-15T01:35:10;0.50;;;0.50;;
41532;SDS011;27262;-35.248;149.138;2023-03-15T01:37:40;0.43;;;0.43;;
41532;SDS011;27262;-35.248;149.138;2023-03-15T01:40:11;0.30;;;0.30;;
41532;SDS011;27262;-35.248;149.138;2023-03-15T01:42:52;0.52;;;0.40;;
41532;SDS011;27262;-35.248;149.138;2023-03-15T01:48:21;0.50;;;0.50;;
41532;SDS011;27262;-35.248;149.138;2023-03-15T01:51:23;0.43;;;0.43;;
41532;SDS011;27262;-35.248;149.138;2023-03-15T01:54:14;0.40;;;0.40;;
41532;SDS011;27262;-35.248;149.138;2023-03-15T01:56:51;0.47;;;0.47;;
41532;SDS011;27262;-35.248;149.138;2023-03-15T01:59:35;0.50;;;0.50;;
41532;SDS011;27262;-35.248;149.138;2023-03-15T02:02:11;0.50;;;0.50;;
41532;SDS011;27262;-35.248;149.138;2023-03-15T02:04:46;0.70;;;0.50;;
41532;SDS011;27262;-35.248;149.138;2023-03-15T02:07:25;0.82;;;0.70;;
41532;SDS011;27262;-35.248;149.138;2023-03-15T02:10:01;0.32;;;0.30;;
41532;SDS011;27262;-35.248;149.138;2023-03-15T02:12:37;0.50;;;0.50;;
41532;SDS011;27262;-35.248;149.138;2023-03-15T02:15:11;0.47;;;0.47;;
41532;SDS011;27262;-35.248;149.138;2023-03-15T02:17:44;0.60;;;0.60;;
41532;SDS011;27262;-35.248;149.138;2023-03-15T02:23:24;0.50;;;0.50;;
41532;SDS011;27262;-35.248;149.138;2023-03-15T02:28:56;0.80;;;0.55;;
41532;SDS011;27262;-35.248;149.138;2023-03-15T02:31:27;0.45;;;0.40;;
41532;SDS011;27262;-35.248;149.138;2023-03-15T02:34:03;0.50;;;0.50;;
41532;SDS011;27262;-35.248;149.138;2023-03-15T02:36:35;0.35;;;0.35;;
41532;SDS011;27262;-35.248;149.138;2023-03-15T02:39:13;0.50;;;0.50;;
41532;SDS011;27262;-35.248;149.138;2023-03-15T02:41:49;0.40;;;0.40;;
41532;SDS011;27262;-35.248;149.138;2023-03-15T02:46:54;0.45;;;0.45;;
41532;SDS011;27262;-35.248;149.138;2023-03-15T02:49:30;0.40;;;0.40;;
41532;SDS011;27262;-35.248;149.138;2023-03-15T02:52:06;0.65;;;0.50;;
41532;SDS011;27262;-35.248;149.138;2023-03-15T02:54:37;0.40;;;0.40;;
41532;SDS011;27262;-35.248;149.138;2023-03-15T02:57:11;0.50;;;0.50;;
41532;SDS011;27262;-35.248;149.138;2023-03-15T02:59:43;0.50;;;0.50;;
41532;SDS011;27262;-35.248;149.138;2023-03-15T03:02:15;0.60;;;0.45;;
41532;SDS011;27262;-35.248;149.138;2023-03-15T03:04:46;0.60;;;0.60;;
41532;SDS011;27262;-35.248;149.138;2023-03-15T03:07:16;0.50;;;0.50;;
41532;SDS011;27262;-35.248;149.138;2023-03-15T03:09:47;0.50;;;0.40;;
41532;SDS011;27262;-35.248;149.138;2023-03-15T03:12:17;0.40;;;0.40;;
41532;SDS011;27262;-35.248;149.138;2023-03-15T03:14:47;0.95;;;0.60;;
41532;SDS011;27262;-35.248;149.138;2023-03-15T03:17:17;0.60;;;0.60;;
41532;SDS011;27262;-35.248;149.138;2023-03-15T03:19:48;0.93;;;0.43;;
41532;SDS011;27262;-35.248;149.138;2023-03-15T03:22:19;0.80;;;0.70;;
41532;SDS011;27262;-35.248;149.138;2023-03-15T03:24:51;0.50;;;0.50;;
41532;SDS011;27262;-35.248;149.138;2023-03-15T03:27:22;0.77;;;0.60;;
41532;SDS011;27262;-35.248;149.138;2023-03-15T03:29:52;0.47;;;0.45;;
41532;SDS011;27262;-35.248;149.138;2023-03-15T03:32:23;0.85;;;0.45;;
41532;SDS011;27262;-35.248;149.138;2023-03-15T03:34:53;0.57;;;0.40;;
41532;SDS011;27262;-35.248;149.138;2023-03-15T03:37:23;0.50;;;0.50;;
41532;SDS011;27262;-35.248;149.138;2023-03-15T03:39:54;0.30;;;0.30;;
41532;SDS011;27262;-35.248;149.138;2023-03-15T03:42:24;0.50;;;0.50;;
41532;SDS011;27262;-35.248;149.138;2023-03-15T03:44:55;0.40;;;0.40;;
41532;SDS011;27262;-35.248;149.138;2023-03-15T03:47:25;0.50;;;0.50;;
41532;SDS011;27262;-35.248;149.138;2023-03-15T03:49:56;0.52;;;0.52;;
41532;SDS011;27262;-35.248;149.138;2023-03-15T03:52:26;0.50;;;0.40;;
41532;SDS011;27262;-35.248;149.138;2023-03-15T03:54:56;0.40;;;0.40;;
41532;SDS011;27262;-35.248;149.138;2023-03-15T03:57:27;0.50;;;0.50;;
41532;SDS011;27262;-35.248;149.138;2023-03-15T03:59:57;0.60;;;0.60;;
41532;SDS011;27262;-35.248;149.138;2023-03-15T04:02:27;0.65;;;0.50;;
41532;SDS011;27262;-35.248;149.138;2023-03-15T04:04:58;0.47;;;0.45;;
41532;SDS011;27262;-35.248;149.138;2023-03-15T04:07:28;0.50;;;0.50;;
41532;SDS011;27262;-35.248;149.138;2023-03-15T04:09:59;0.85;;;0.55;;
41532;SDS011;27262;-35.248;149.138;2023-03-15T04:12:30;0.40;;;0.40;;
41532;SDS011;27262;-35.248;149.138;2023-03-15T04:15:00;0.50;;;0.50;;
41532;SDS011;27262;-35.248;149.138;2023-03-15T04:17:31;0.45;;;0.40;;
41532;SDS011;27262;-35.248;149.138;2023-03-15T04:20:01;0.45;;;0.45;;
41532;SDS011;27262;-35.248;149.138;2023-03-15T04:22:39;0.40;;;0.40;;
41532;SDS011;27262;-35.248;149.138;2023-03-15T04:25:09;0.50;;;0.40;;
41532;SDS011;27262;-35.248;149.138;2023-03-15T04:27:39;0.60;;;0.60;;
41532;SDS011;27262;-35.248;149.138;2023-03-15T04:30:10;0.38;;;0.38;;
41532;SDS011;27262;-35.248;149.138;2023-03-15T04:32:40;0.60;;;0.60;;
41532;SDS011;27262;-35.248;149.138;2023-03-15T04:35:11;0.40;;;0.40;;
41532;SDS011;27262;-35.248;149.138;2023-03-15T04:37:41;0.50;;;0.50;;
41532;SDS011;27262;-35.248;149.138;2023-03-15T04:40:11;0.43;;;0.43;;
41532;SDS011;27262;-35.248;149.138;2023-03-15T04:42:42;0.40;;;0.40;;
41532;SDS011;27262;-35.248;149.138;2023-03-15T04:45:12;0.63;;;0.50;;
41532;SDS011;27262;-35.248;149.138;2023-03-15T04:47:43;0.60;;;0.52;;
41532;SDS011;27262;-35.248;149.138;2023-03-15T04:50:13;0.40;;;0.40;;
41532;SDS011;27262;-35.248;149.138;2023-03-15T04:52:43;0.52;;;0.50;;
41532;SDS011;27262;-35.248;149.138;2023-03-15T04:55:14;0.50;;;0.50;;
41532;SDS011;27262;-35.248;149.138;2023-03-15T04:57:45;0.50;;;0.50;;
41532;SDS011;27262;-35.248;149.138;2023-03-15T05:00:15;0.40;;;0.40;;
41532;SDS011;27262;-35.248;149.138;2023-03-15T05:02:46;0.60;;;0.60;;
41532;SDS011;27262;-35.248;149.138;2023-03-15T05:05:22;0.68;;;0.60;;
41532;SDS011;27262;-35.248;149.138;2023-03-15T05:07:52;0.47;;;0.43;;
41532;SDS011;27262;-35.248;149.138;2023-03-15T05:10:23;0.40;;;0.40;;
41532;SDS011;27262;-35.248;149.138;2023-03-15T05:12:53;0.60;;;0.60;;
41532;SDS011;27262;-35.248;149.138;2023-03-15T05:15:24;0.43;;;0.40;;
41532;SDS011;27262;-35.248;149.138;2023-03-15T05:17:55;0.50;;;0.50;;
41532;SDS011;27262;-35.248;149.138;2023-03-15T05:20:25;1.15;;;0.40;;
41532;SDS011;27262;-35.248;149.138;2023-03-15T05:22:56;0.50;;;0.50;;
41532;SDS011;27262;-35.248;149.138;2023-03-15T05:25:26;0.43;;;0.43;;
41532;SDS011;27262;-35.248;149.138;2023-03-15T05:27:56;0.50;;;0.50;;
41532;SDS011;27262;-35.248;149.138;2023-03-15T05:30:27;0.40;;;0.40;;
41532;SDS011;27262;-35.248;149.138;2023-03-15T05:32:57;0.40;;;0.40;;
41532;SDS011;27262;-35.248;149.138;2023-03-15T05:35:27;0.55;;;0.50;;
41532;SDS011;27262;-35.248;149.138;2023-03-15T05:37:57;0.40;;;0.40;;
41532;SDS011;27262;-35.248;149.138;2023-03-15T05:40:28;0.43;;;0.40;;
41532;SDS011;27262;-35.248;149.138;2023-03-15T05:43:00;0.40;;;0.40;;
41532;SDS011;27262;-35.248;149.138;2023-03-15T05:45:30;0.47;;;0.47;;
41532;SDS011;27262;-35.248;149.138;2023-03-15T05:48:01;0.35;;;0.35;;
41532;SDS011;27262;-35.248;149.138;2023-03-15T05:50:31;0.52;;;0.40;;
41532;SDS011;27262;-35.248;149.138;2023-03-15T05:53:02;0.70;;;0.70;;
41532;SDS011;27262;-35.248;149.138;2023-03-15T05:55:32;0.43;;;0.43;;
41532;SDS011;27262;-35.248;149.138;2023-03-15T05:58:04;0.50;;;0.50;;
41532;SDS011;27262;-35.248;149.138;2023-03-15T06:00:35;0.55;;;0.47;;
41532;SDS011;27262;-35.248;149.138;2023-03-15T06:03:05;0.30;;;0.30;;
41532;SDS011;27262;-35.248;149.138;2023-03-15T06:05:36;0.55;;;0.40;;
41532;SDS011;27262;-35.248;149.138;2023-03-15T06:08:06;0.68;;;0.68;;
41532;SDS011;27262;-35.248;149.138;2023-03-15T06:10:37;0.52;;;0.50;;
41532;SDS011;27262;-35.248;149.138;2023-03-15T06:13:08;0.50;;;0.50;;
41532;SDS011;27262;-35.248;149.138;2023-03-15T06:15:38;0.40;;;0.40;;
41532;SDS011;27262;-35.248;149.138;2023-03-15T06:18:09;0.50;;;0.50;;
41532;SDS011;27262;-35.248;149.138;2023-03-15T06:20:41;0.50;;;0.50;;
41532;SDS011;27262;-35.248;149.138;2023-03-15T06:23:11;0.50;;;0.50;;
41532;SDS011;27262;-35.248;149.138;2023-03-15T06:25:42;0.43;;;0.43;;
41532;SDS011;27262;-35.248;149.138;2023-03-15T06:28:13;0.50;;;0.50;;
41532;SDS011;27262;-35.248;149.138;2023-03-15T06:30:43;0.40;;;0.40;;
41532;SDS011;27262;-35.248;149.138;2023-03-15T06:33:13;0.50;;;0.50;;
41532;SDS011;27262;-35.248;149.138;2023-03-15T06:35:44;0.60;;;0.50;;
41532;SDS011;27262;-35.248;149.138;2023-03-15T06:38:14;0.40;;;0.40;;
41532;SDS011;27262;-35.248;149.138;2023-03-15T06:40:57;0.60;;;0.50;;
41532;SDS011;27262;-35.248;149.138;2023-03-15T06:43:32;0.40;;;0.40;;
41532;SDS011;27262;-35.248;149.138;2023-03-15T06:46:03;0.40;;;0.40;;
41532;SDS011;27262;-35.248;149.138;2023-03-15T06:48:33;0.50;;;0.50;;
41532;SDS011;27262;-35.248;149.138;2023-03-15T06:51:04;0.50;;;0.40;;
41532;SDS011;27262;-35.248;149.138;2023-03-15T06:53:35;0.52;;;0.50;;
41532;SDS011;27262;-35.248;149.138;2023-03-15T06:56:05;0.40;;;0.40;;
41532;SDS011;27262;-35.248;149.138;2023-03-15T06:58:36;0.50;;;0.50;;
41532;SDS011;27262;-35.248;149.138;2023-03-15T07:01:06;0.65;;;0.63;;
41532;SDS011;27262;-35.248;149.138;2023-03-15T07:03:40;0.88;;;0.40;;
41532;SDS011;27262;-35.248;149.138;2023-03-15T07:06:10;0.85;;;0.55;;
41532;SDS011;27262;-35.248;149.138;2023-03-15T07:08:41;0.50;;;0.50;;
41532;SDS011;27262;-35.248;149.138;2023-03-15T07:11:11;0.55;;;0.55;;
41532;SDS011;27262;-35.248;149.138;2023-03-15T07:13:42;0.70;;;0.50;;
41532;SDS011;27262;-35.248;149.138;2023-03-15T07:16:13;0.40;;;0.40;;
41532;SDS011;27262;-35.248;149.138;2023-03-15T07:18:44;0.52;;;0.50;;
41532;SDS011;27262;-35.248;149.138;2023-03-15T07:21:14;0.60;;;0.50;;
41532;SDS011;27262;-35.248;149.138;2023-03-15T07:23:44;0.50;;;0.40;;
41532;SDS011;27262;-35.248;149.138;2023-03-15T07:26:15;0.50;;;0.50;;
41532;SDS011;27262;-35.248;149.138;2023-03-15T07:28:45;0.70;;;0.50;;
41532;SDS011;27262;-35.248;149.138;2023-03-15T07:31:15;0.40;;;0.40;;
41532;SDS011;27262;-35.248;149.138;2023-03-15T07:33:45;0.47;;;0.47;;
41532;SDS011;27262;-35.248;149.138;2023-03-15T07:36:16;0.40;;;0.40;;
41532;SDS011;27262;-35.248;149.138;2023-03-15T07:38:46;0.50;;;0.50;;
41532;SDS011;27262;-35.248;149.138;2023-03-15T07:41:16;0.50;;;0.50;;
41532;SDS011;27262;-35.248;149.138;2023-03-15T07:43:47;0.32;;;0.30;;
41532;SDS011;27262;-35.248;149.138;2023-03-15T07:46:17;0.50;;;0.50;;
41532;SDS011;27262;-35.248;149.138;2023-03-15T07:48:48;0.60;;;0.60;;
41532;SDS011;27262;-35.248;149.138;2023-03-15T07:51:18;0.52;;;0.52;;
41532;SDS011;27262;-35.248;149.138;2023-03-15T07:53:48;0.40;;;0.40;;
41532;SDS011;27262;-35.248;149.138;2023-03-15T07:56:18;0.50;;;0.50;;
41532;SDS011;27262;-35.248;149.138;2023-03-15T07:58:49;0.50;;;0.50;;
41532;SDS011;27262;-35.248;149.138;2023-03-15T08:01:19;0.40;;;0.40;;
41532;SDS011;27262;-35.248;149.138;2023-03-15T08:03:49;0.40;;;0.40;;
41532;SDS011;27262;-35.248;149.138;2023-03-15T08:06:20;0.50;;;0.50;;
41532;SDS011;27262;-35.248;149.138;2023-03-15T08:08:50;0.50;;;0.50;;
41532;SDS011;27262;-35.248;149.138;2023-03-15T08:11:20;0.50;;;0.50;;
41532;SDS011;27262;-35.248;149.138;2023-03-15T08:13:50;0.60;;;0.50;;
41532;SDS011;27262;-35.248;149.138;2023-03-15T08:16:21;0.47;;;0.38;;
41532;SDS011;27262;-35.248;149.138;2023-03-15T08:18:51;0.40;;;0.40;;
41532;SDS011;27262;-35.248;149.138;2023-03-15T08:21:21;0.68;;;0.57;;
41532;SDS011;27262;-35.248;149.138;2023-03-15T08:23:51;0.40;;;0.40;;
41532;SDS011;27262;-35.248;149.138;2023-03-15T08:26:21;0.52;;;0.40;;
41532;SDS011;27262;-35.248;149.138;2023-03-15T08:28:52;0.50;;;0.50;;
41532;SDS011;27262;-35.248;149.138;2023-03-15T08:31:22;1.08;;;0.60;;
41532;SDS011;27262;-35.248;149.138;2023-03-15T08:33:52;0.50;;;0.50;;
41532;SDS011;27262;-35.248;149.138;2023-03-15T08:36:22;0.50;;;0.50;;
41532;SDS011;27262;-35.248;149.138;2023-03-15T08:38:53;0.40;;;0.40;;
41532;SDS011;27262;-35.248;149.138;2023-03-15T08:41:23;0.93;;;0.60;;
41532;SDS011;27262;-35.248;149.138;2023-03-15T08:43:53;0.65;;;0.57;;
41532;SDS011;27262;-35.248;149.138;2023-03-15T08:46:24;0.52;;;0.40;;
41532;SDS011;27262;-35.248;149.138;2023-03-15T08:48:55;0.85;;;0.50;;
41532;SDS011;27262;-35.248;149.138;2023-03-15T08:51:25;0.50;;;0.50;;
41532;SDS011;27262;-35.248;149.138;2023-03-15T08:53:58;0.40;;;0.40;;
41532;SDS011;27262;-35.248;149.138;2023-03-15T08:56:31;0.40;;;0.40;;
41532;SDS011;27262;-35.248;149.138;2023-03-15T08:59:01;0.45;;;0.45;;
41532;SDS011;27262;-35.248;149.138;2023-03-15T09:01:31;0.50;;;0.50;;
41532;SDS011;27262;-35.248;149.138;2023-03-15T09:04:02;0.60;;;0.60;;
41532;SDS011;27262;-35.248;149.138;2023-03-15T09:06:32;0.80;;;0.40;;
41532;SDS011;27262;-35.248;149.138;2023-03-15T09:09:03;0.50;;;0.50;;
41532;SDS011;27262;-35.248;149.138;2023-03-15T09:11:34;0.70;;;0.60;;
41532;SDS011;27262;-35.248;149.138;2023-03-15T09:14:04;0.52;;;0.52;;
41532;SDS011;27262;-35.248;149.138;2023-03-15T09:16:34;0.57;;;0.57;;
41532;SDS011;27262;-35.248;149.138;2023-03-15T09:19:05;0.60;;;0.52;;
41532;SDS011;27262;-35.248;149.138;2023-03-15T09:21:35;0.50;;;0.50;;
41532;SDS011;27262;-35.248;149.138;2023-03-15T09:24:05;0.60;;;0.60;;
41532;SDS011;27262;-35.248;149.138;2023-03-15T09:26:35;0.60;;;0.60;;
41532;SDS011;27262;-35.248;149.138;2023-03-15T09:29:06;0.52;;;0.50;;
41532;SDS011;27262;-35.248;149.138;2023-03-15T09:31:36;0.60;;;0.60;;
41532;SDS011;27262;-35.248;149.138;2023-03-15T09:34:07;0.50;;;0.50;;
41532;SDS011;27262;-35.248;149.138;2023-03-15T09:36:37;0.50;;;0.50;;
41532;SDS011;27262;-35.248;149.138;2023-03-15T09:39:08;0.73;;;0.60;;
41532;SDS011;27262;-35.248;149.138;2023-03-15T09:49:53;0.57;;;0.57;;
41532;SDS011;27262;-35.248;149.138;2023-03-15T09:52:34;1.05;;;0.30;;
41532;SDS011;27262;-35.248;149.138;2023-03-15T09:55:14;0.60;;;0.60;;
41532;SDS011;27262;-35.248;149.138;2023-03-15T10:00:37;0.57;;;0.57;;
41532;SDS011;27262;-35.248;149.138;2023-03-15T10:05:59;0.63;;;0.63;;
41532;SDS011;27262;-35.248;149.138;2023-03-15T10:08:35;0.60;;;0.60;;
41532;SDS011;27262;-35.248;149.138;2023-03-15T10:16:46;0.60;;;0.60;;
41532;SDS011;27262;-35.248;149.138;2023-03-15T10:19:35;0.47;;;0.47;;
41532;SDS011;27262;-35.248;149.138;2023-03-15T10:22:32;0.47;;;0.47;;
41532;SDS011;27262;-35.248;149.138;2023-03-15T10:25:25;0.75;;;0.57;;
41532;SDS011;27262;-35.248;149.138;2023-03-15T10:27:58;0.57;;;0.55;;
41532;SDS011;27262;-35.248;149.138;2023-03-15T10:30:34;0.70;;;0.70;;
41532;SDS011;27262;-35.248;149.138;2023-03-15T10:35:51;0.40;;;0.40;;
41532;SDS011;27262;-35.248;149.138;2023-03-15T10:38:36;0.55;;;0.55;;
41532;SDS011;27262;-35.248;149.138;2023-03-15T10:41:10;0.98;;;0.70;;
41532;SDS011;27262;-35.248;149.138;2023-03-15T10:44:02;0.73;;;0.73;;
41532;SDS011;27262;-35.248;149.138;2023-03-15T10:46:34;0.50;;;0.50;;
41532;SDS011;27262;-35.248;149.138;2023-03-15T10:51:45;0.50;;;0.50;;
41532;SDS011;27262;-35.248;149.138;2023-03-15T10:54:17;0.70;;;0.70;;
41532;SDS011;27262;-35.248;149.138;2023-03-15T10:59:31;0.50;;;0.50;;
41532;SDS011;27262;-35.248;149.138;2023-03-15T11:04:43;0.60;;;0.60;;
41532;SDS011;27262;-35.248;149.138;2023-03-15T11:07:18;0.70;;;0.43;;
41532;SDS011;27262;-35.248;149.138;2023-03-15T11:10:07;0.60;;;0.57;;
41532;SDS011;27262;-35.248;149.138;2023-03-15T11:12:46;0.50;;;0.50;;
41532;SDS011;27262;-35.248;149.138;2023-03-15T11:15:17;0.50;;;0.50;;
41532;SDS011;27262;-35.248;149.138;2023-03-15T11:17:48;0.70;;;0.50;;
41532;SDS011;27262;-35.248;149.138;2023-03-15T11:20:36;0.50;;;0.50;;
41532;SDS011;27262;-35.248;149.138;2023-03-15T11:23:18;0.60;;;0.47;;
41532;SDS011;27262;-35.248;149.138;2023-03-15T11:26:01;0.63;;;0.60;;
41532;SDS011;27262;-35.248;149.138;2023-03-15T11:28:34;0.40;;;0.40;;
41532;SDS011;27262;-35.248;149.138;2023-03-15T11:31:06;0.40;;;0.40;;
41532;SDS011;27262;-35.248;149.138;2023-03-15T11:33:37;0.65;;;0.65;;
41532;SDS011;27262;-35.248;149.138;2023-03-15T11:36:25;0.50;;;0.50;;
41532;SDS011;27262;-35.248;149.138;2023-03-15T11:39:01;0.50;;;0.50;;
41532;SDS011;27262;-35.248;149.138;2023-03-15T11:47:46;0.50;;;0.50;;
41532;SDS011;27262;-35.248;149.138;2023-03-15T11:50:24;0.60;;;0.60;;
41532;SDS011;27262;-35.248;149.138;2023-03-15T11:52:55;0.47;;;0.47;;
41532;SDS011;27262;-35.248;149.138;2023-03-15T11:55:31;0.50;;;0.50;;
41532;SDS011;27262;-35.248;149.138;2023-03-15T12:01:05;0.40;;;0.35;;
41532;SDS011;27262;-35.248;149.138;2023-03-15T12:03:42;0.77;;;0.50;;
41532;SDS011;27262;-35.248;149.138;2023-03-15T12:08:53;0.55;;;0.55;;
41532;SDS011;27262;-35.248;149.138;2023-03-15T12:16:28;0.55;;;0.55;;
41532;SDS011;27262;-35.248;149.138;2023-03-15T12:19:37;0.80;;;0.70;;
41532;SDS011;27262;-35.248;149.138;2023-03-15T12:22:02;0.60;;;0.60;;
41532;SDS011;27262;-35.248;149.138;2023-03-15T12:24:35;0.70;;;0.70;;
41532;SDS011;27262;-35.248;149.138;2023-03-15T12:27:19;0.50;;;0.50;;
41532;SDS011;27262;-35.248;149.138;2023-03-15T12:29:57;0.80;;;0.60;;
41532;SDS011;27262;-35.248;149.138;2023-03-15T12:32:29;0.82;;;0.75;;
41532;SDS011;27262;-35.248;149.138;2023-03-15T12:35:20;0.68;;;0.63;;
41532;SDS011;27262;-35.248;149.138;2023-03-15T12:37:55;0.60;;;0.50;;
41532;SDS011;27262;-35.248;149.138;2023-03-15T12:43:06;0.52;;;0.52;;
41532;SDS011;27262;-35.248;149.138;2023-03-15T12:45:41;0.85;;;0.82;;
41532;SDS011;27262;-35.248;149.138;2023-03-15T12:48:17;0.63;;;0.63;;
41532;SDS011;27262;-35.248;149.138;2023-03-15T12:50:50;0.63;;;0.63;;
41532;SDS011;27262;-35.248;149.138;2023-03-15T12:55:57;0.68;;;0.63;;
41532;SDS011;27262;-35.248;149.138;2023-03-15T12:58:48;0.75;;;0.73;;
41532;SDS011;27262;-35.248;149.138;2023-03-15T13:01:27;0.57;;;0.57;;
41532;SDS011;27262;-35.248;149.138;2023-03-15T13:03:58;0.60;;;0.60;;
41532;SDS011;27262;-35.248;149.138;2023-03-15T13:06:34;0.70;;;0.70;;
41532;SDS011;27262;-35.248;149.138;2023-03-15T13:15:05;0.85;;;0.80;;
41532;SDS011;27262;-35.248;149.138;2023-03-15T13:17:50;0.70;;;0.70;;
41532;SDS011;27262;-35.248;149.138;2023-03-15T13:20:47;0.85;;;0.70;;
41532;SDS011;27262;-35.248;149.138;2023-03-15T13:23:33;1.15;;;0.80;;
41532;SDS011;27262;-35.248;149.138;2023-03-15T13:29:00;0.80;;;0.80;;
41532;SDS011;27262;-35.248;149.138;2023-03-15T13:31:45;0.90;;;0.90;;
41532;SDS011;27262;-35.248;149.138;2023-03-15T13:34:27;0.70;;;0.70;;
41532;SDS011;27262;-35.248;149.138;2023-03-15T13:37:01;0.68;;;0.68;;
41532;SDS011;27262;-35.248;149.138;2023-03-15T13:39:32;1.13;;;1.02;;
41532;SDS011;27262;-35.248;149.138;2023-03-15T13:42:16;1.02;;;0.98;;
41532;SDS011;27262;-35.248;149.138;2023-03-15T13:47:43;0.75;;;0.75;;
41532;SDS011;27262;-35.248;149.138;2023-03-15T13:50:15;0.90;;;0.90;;
41532;SDS011;27262;-35.248;149.138;2023-03-15T13:52:47;0.73;;;0.73;;
41532;SDS011;27262;-35.248;149.138;2023-03-15T13:55:21;1.02;;;0.90;;
41532;SDS011;27262;-35.248;149.138;2023-03-15T13:57:53;1.00;;;1.00;;
41532;SDS011;27262;-35.248;149.138;2023-03-15T14:00:28;0.80;;;0.80;;
41532;SDS011;27262;-35.248;149.138;2023-03-15T14:03:02;0.98;;;0.88;;
41532;SDS011;27262;-35.248;149.138;2023-03-15T14:05:51;0.60;;;0.60;;
41532;SDS011;27262;-35.248;149.138;2023-03-15T14:11:02;1.08;;;0.90;;
41532;SDS011;27262;-35.248;149.138;2023-03-15T14:13:34;1.67;;;0.88;;
41532;SDS011;27262;-35.248;149.138;2023-03-15T14:16:25;0.57;;;0.45;;
41532;SDS011;27262;-35.248;149.138;2023-03-15T14:19:29;1.10;;;1.00;;
41532;SDS011;27262;-35.248;149.138;2023-03-15T14:22:03;0.90;;;0.90;;
41532;SDS011;27262;-35.248;149.138;2023-03-15T14:24:46;1.30;;;1.00;;
41532;SDS011;27262;-35.248;149.138;2023-03-15T14:27:20;1.20;;;1.10;;
41532;SDS011;27262;-35.248;149.138;2023-03-15T14:29:57;1.00;;;0.90;;
41532;SDS011;27262;-35.248;149.138;2023-03-15T14:32:36;0.77;;;0.73;;
41532;SDS011;27262;-35.248;149.138;2023-03-15T14:35:23;1.15;;;1.05;;
41532;SDS011;27262;-35.248;149.138;2023-03-15T14:40:32;1.13;;;1.02;;
41532;SDS011;27262;-35.248;149.138;2023-03-15T14:43:07;1.05;;;0.93;;
41532;SDS011;27262;-35.248;149.138;2023-03-15T14:45:39;1.20;;;1.10;;
41532;SDS011;27262;-35.248;149.138;2023-03-15T14:50:59;1.05;;;0.85;;
41532;SDS011;27262;-35.248;149.138;2023-03-15T14:53:34;0.90;;;0.90;;
41532;SDS011;27262;-35.248;149.138;2023-03-15T14:56:08;1.08;;;1.02;;
41532;SDS011;27262;-35.248;149.138;2023-03-15T14:58:41;0.90;;;0.90;;
41532;SDS011;27262;-35.248;149.138;2023-03-15T15:01:12;0.95;;;0.95;;
41532;SDS011;27262;-35.248;149.138;2023-03-15T15:03:46;0.77;;;0.77;;
41532;SDS011;27262;-35.248;149.138;2023-03-15T15:06:29;0.90;;;0.90;;
41532;SDS011;27262;-35.248;149.138;2023-03-15T15:09:01;0.80;;;0.80;;
41532;SDS011;27262;-35.248;149.138;2023-03-15T15:11:33;0.93;;;0.93;;
41532;SDS011;27262;-35.248;149.138;2023-03-15T15:14:07;0.98;;;0.93;;
41532;SDS011;27262;-35.248;149.138;2023-03-15T15:16:42;0.90;;;0.80;;
41532;SDS011;27262;-35.248;149.138;2023-03-15T15:19:14;0.98;;;0.98;;
41532;SDS011;27262;-35.248;149.138;2023-03-15T15:21:45;0.90;;;0.90;;
41532;SDS011;27262;-35.248;149.138;2023-03-15T15:24:17;0.90;;;0.90;;
41532;SDS011;27262;-35.248;149.138;2023-03-15T15:26:50;0.90;;;0.90;;
41532;SDS011;27262;-35.248;149.138;2023-03-15T15:29:20;1.10;;;0.95;;
41532;SDS011;27262;-35.248;149.138;2023-03-15T15:31:51;0.80;;;0.80;;
41532;SDS011;27262;-35.248;149.138;2023-03-15T15:34:21;1.15;;;1.05;;
41532;SDS011;27262;-35.248;149.138;2023-03-15T15:36:52;0.90;;;0.90;;
41532;SDS011;27262;-35.248;149.138;2023-03-15T15:39:24;1.05;;;0.98;;
41532;SDS011;27262;-35.248;149.138;2023-03-15T15:41:57;1.00;;;0.90;;
41532;SDS011;27262;-35.248;149.138;2023-03-15T15:44:27;0.80;;;0.80;;
41532;SDS011;27262;-35.248;149.138;2023-03-15T15:46:57;1.15;;;1.00;;
41532;SDS011;27262;-35.248;149.138;2023-03-15T15:49:28;1.25;;;1.13;;
41532;SDS011;27262;-35.248;149.138;2023-03-15T15:51:58;0.70;;;0.70;;
41532;SDS011;27262;-35.248;149.138;2023-03-15T15:54:29;0.93;;;0.82;;
41532;SDS011;27262;-35.248;149.138;2023-03-15T15:57:03;1.20;;;1.10;;
41532;SDS011;27262;-35.248;149.138;2023-03-15T15:59:34;1.17;;;1.08;;
41532;SDS011;27262;-35.248;149.138;2023-03-15T16:02:08;0.98;;;0.98;;
41532;SDS011;27262;-35.248;149.138;2023-03-15T16:04:45;1.08;;;0.90;;
41532;SDS011;27262;-35.248;149.138;2023-03-15T16:07:17;1.00;;;0.90;;